Time;durP1;ratioP1;P1;durP2;ratioP2;P2;SDS_P1;SDS_P2;PMS_P1;PMS_P2;Temp;Humidity;BMP_temperature;BMP_pressure;BME280_temperature;BME280_humidity;BME280_pressure;Samples;Min_cycle;Max_cycle;Signal;HPM_P1;HPM_P2
2023/11/13 00:02:10;;;;;;;28.40;21.73;;;9.30;98.60;;;;;;4998731;28;20041;-85
2023/11/13 00:04:36;;;;;;;28.48;22.17;;;9.20;98.60;;;;;;5002737;28;20026;-89
2023/11/13 00:07:03;;;;;;;30.33;23.10;;;9.20;98.70;;;;;;5002712;28;20046;-87
2023/11/13 00:09:29;;;;;;;30.25;23.02;;;9.30;98.70;;;;;;4999758;28;20162;-85
2023/11/13 00:11:54;;;;;;;28.88;21.77;;;9.30;98.80;;;;;;4994825;28;20074;-85
2023/11/13 00:14:21;;;;;;;30.60;23.13;;;9.30;98.80;;;;;;4999837;28;20022;-84
2023/11/13 00:16:46;;;;;;;28.88;22.40;;;9.40;98.80;;;;;;5017247;28;20042;-86
2023/11/13 00:19:12;;;;;;;29.35;22.63;;;9.40;98.80;;;;;;5003212;28;20036;-88
2023/11/13 00:21:38;;;;;;;28.58;22.95;;;9.40;98.90;;;;;;5005102;28;20038;-84
2023/11/13 00:24:05;;;;;;;29.45;22.38;;;9.40;98.90;;;;;;5016448;28;20174;-83
2023/11/13 00:26:31;;;;;;;29.35;22.98;;;9.50;98.90;;;;;;5017284;28;20212;-88
2023/11/13 00:28:57;;;;;;;33.47;24.48;;;9.50;99.00;;;;;;5021610;28;20050;-85
2023/11/13 00:31:23;;;;;;;30.45;23.88;;;9.50;99.00;;;;;;5021406;28;20333;-88
2023/11/13 00:33:49;;;;;;;29.17;23.13;;;9.60;99.10;;;;;;5019976;28;20018;-87
2023/11/13 00:36:15;;;;;;;31.98;22.92;;;9.60;99.10;;;;;;5002326;28;20038;-86
2023/11/13 00:38:41;;;;;;;31.17;23.27;;;9.60;99.10;;;;;;5022712;28;20021;-85
2023/11/13 00:41:11;;;;;;;32.13;23.63;;;9.60;99.20;;;;;;5026093;28;20033;-84
2023/11/13 00:43:37;;;;;;;33.22;23.90;;;9.60;99.20;;;;;;5020605;28;20282;-83
2023/11/13 00:46:03;;;;;;;29.17;21.52;;;9.60;99.20;;;;;;5040019;28;20379;-84
2023/11/13 00:48:28;;;;;;;31.80;22.75;;;9.70;99.30;;;;;;5019070;28;20152;-88
2023/11/13 00:50:54;;;;;;;30.55;23.42;;;9.70;99.30;;;;;;5000870;28;20053;-86
2023/11/13 00:53:20;;;;;;;36.03;24.08;;;9.70;99.30;;;;;;4997149;28;20033;-85
2023/11/13 00:55:45;;;;;;;30.23;22.73;;;9.70;99.40;;;;;;4994269;28;20083;-87
2023/11/13 00:58:11;;;;;;;33.80;25.10;;;9.80;99.40;;;;;;5002824;28;20089;-85
2023/11/13 01:00:36;;;;;;;29.13;21.63;;;9.80;99.40;;;;;;5000611;28;20063;-85
2023/11/13 01:03:02;;;;;;;29.60;22.83;;;9.80;99.40;;;;;;5004122;28;20544;-87
2023/11/13 01:05:28;;;;;;;27.80;21.02;;;9.80;99.40;;;;;;5008666;28;20103;-85
2023/11/13 01:07:53;;;;;;;31.73;23.42;;;9.80;99.40;;;;;;5017950;28;20068;-88
2023/11/13 01:10:19;;;;;;;30.20;23.23;;;9.80;99.40;;;;;;5023469;28;20041;-88
2023/11/13 01:12:45;;;;;;;29.60;22.08;;;9.80;99.40;;;;;;5016807;28;20040;-86
2023/11/13 01:15:12;;;;;;;32.22;22.67;;;9.80;99.40;;;;;;5010809;28;20422;-87
2023/11/13 01:17:37;;;;;;;32.92;22.65;;;9.90;99.50;;;;;;4998262;28;20121;-88
2023/11/13 01:20:05;;;;;;;32.20;23.73;;;9.90;99.50;;;;;;4999314;28;20038;-84
2023/11/13 01:22:31;;;;;;;32.00;22.13;;;9.90;99.50;;;;;;4997434;28;20034;-89
2023/11/13 01:24:57;;;;;;;33.10;24.23;;;9.90;99.50;;;;;;5001154;28;20446;-87
2023/11/13 01:27:23;;;;;;;33.60;23.38;;;9.90;99.50;;;;;;5000944;28;20069;-85
2023/11/13 01:29:48;;;;;;;34.05;23.02;;;9.90;99.50;;;;;;5001054;28;20550;-88
2023/11/13 01:32:14;;;;;;;30.98;21.58;;;10.00;99.60;;;;;;5002260;28;20057;-90
2023/11/13 01:34:40;;;;;;;33.85;22.25;;;9.90;99.60;;;;;;4999855;28;20837;-86
2023/11/13 01:37:05;;;;;;;35.83;23.58;;;9.90;99.60;;;;;;5001982;28;20306;-90
2023/11/13 01:39:31;;;;;;;31.58;21.25;;;9.90;99.60;;;;;;5001547;28;20022;-84
2023/11/13 01:41:57;;;;;;;32.72;21.70;;;9.90;99.60;;;;;;4999876;28;20092;-88
2023/11/13 01:44:23;;;;;;;34.10;22.08;;;10.00;99.70;;;;;;4998976;28;20053;-87
2023/11/13 01:46:49;;;;;;;33.15;22.17;;;10.00;99.70;;;;;;4995601;28;20038;-88
2023/11/13 01:49:14;;;;;;;38.05;22.20;;;10.00;99.70;;;;;;5003319;28;20074;-84
2023/11/13 01:51:41;;;;;;;33.05;21.85;;;10.00;99.80;;;;;;5022192;28;20022;-84
2023/11/13 01:54:07;;;;;;;34.78;20.42;;;10.00;99.80;;;;;;5024917;28;20014;-84
2023/11/13 01:56:33;;;;;;;31.63;20.13;;;10.00;99.80;;;;;;5051602;28;20213;-84
2023/11/13 01:58:59;;;;;;;32.08;19.80;;;10.00;99.80;;;;;;5028483;28;20025;-84
2023/11/13 02:01:26;;;;;;;36.10;19.48;;;10.00;99.80;;;;;;5018166;28;20030;-85
2023/11/13 02:03:55;;;;;;;30.92;19.63;;;10.10;99.80;;;;;;5008659;28;20064;-87
2023/11/13 02:06:20;;;;;;;34.78;19.85;;;10.10;99.90;;;;;;4993132;28;20064;-86
2023/11/13 02:08:46;;;;;;;30.90;19.00;;;10.10;99.90;;;;;;4995193;28;20034;-89
2023/11/13 02:11:12;;;;;;;28.83;19.17;;;10.10;99.80;;;;;;5015221;28;20375;-87
2023/11/13 02:13:38;;;;;;;33.80;19.60;;;10.10;99.90;;;;;;4999844;28;20340;-85
2023/11/13 02:16:05;;;;;;;30.77;19.10;;;10.10;99.90;;;;;;4994535;28;20080;-85
2023/11/13 02:18:37;;;;;;;30.67;18.10;;;10.10;99.90;;;;;;4997501;28;20411;-84
2023/11/13 02:21:03;;;;;;;30.52;18.13;;;10.10;99.90;;;;;;4997380;28;20117;-86
2023/11/13 02:23:28;;;;;;;34.42;18.65;;;10.10;99.90;;;;;;4997234;28;20034;-87
2023/11/13 02:25:55;;;;;;;31.88;17.92;;;10.10;99.90;;;;;;5010994;28;20034;-86
2023/11/13 02:28:21;;;;;;;35.58;17.85;;;10.10;99.90;;;;;;4997522;28;20781;-88
2023/11/13 02:30:47;;;;;;;33.75;17.08;;;10.10;99.90;;;;;;5000175;28;20026;-88
2023/11/13 02:33:13;;;;;;;34.05;18.00;;;10.10;99.90;;;;;;4997342;28;20041;-85
2023/11/13 02:35:39;;;;;;;33.35;18.08;;;10.10;99.90;;;;;;4998342;28;20030;-87
2023/11/13 02:38:05;;;;;;;29.20;16.00;;;10.20;99.90;;;;;;5000295;28;20045;-87
2023/11/13 02:40:31;;;;;;;32.25;16.70;;;10.20;99.90;;;;;;5002413;28;20065;-85
2023/11/13 02:42:56;;;;;;;34.78;16.05;;;10.20;99.90;;;;;;5000190;28;20430;-87
2023/11/13 02:45:26;;;;;;;34.95;16.55;;;10.20;99.90;;;;;;4999535;28;20098;-84
2023/11/13 02:47:52;;;;;;;32.15;16.08;;;10.20;99.90;;;;;;4999484;28;20041;-88
2023/11/13 02:50:19;;;;;;;33.13;15.52;;;10.20;99.90;;;;;;4999106;28;20301;-87
2023/11/13 02:52:45;;;;;;;40.15;15.43;;;10.20;99.90;;;;;;4999920;28;20030;-86
2023/11/13 02:55:11;;;;;;;34.67;15.05;;;10.30;99.90;;;;;;4999750;28;20351;-87
2023/11/13 02:57:36;;;;;;;38.35;14.23;;;10.30;99.90;;;;;;4998190;28;20044;-86
2023/11/13 03:00:10;;;;;;;33.83;14.70;;;10.30;99.90;;;;;;5004474;28;20104;-85
2023/11/13 03:02:37;;;;;;;31.70;14.60;;;10.40;99.90;;;;;;5009196;28;20618;-85
2023/11/13 03:05:03;;;;;;;34.83;14.43;;;10.40;99.90;;;;;;4997894;28;20038;-88
2023/11/13 03:07:28;;;;;;;36.38;15.10;;;10.40;99.90;;;;;;4996357;28;20058;-86
2023/11/13 03:09:54;;;;;;;37.70;14.35;;;10.50;99.90;;;;;;5001985;28;20129;-87
2023/11/13 03:12:23;;;;;;;44.85;14.40;;;10.50;99.90;;;;;;4997380;28;20042;-84
2023/11/13 03:14:50;;;;;;;38.17;14.27;;;10.50;99.90;;;;;;4997875;28;20407;-85
2023/11/13 03:17:16;;;;;;;41.95;14.93;;;10.50;99.90;;;;;;4996850;28;20033;-88
2023/11/13 03:19:42;;;;;;;36.05;13.52;;;10.50;99.90;;;;;;4999985;28;20022;-87
2023/11/13 03:22:09;;;;;;;37.05;13.20;;;10.60;99.90;;;;;;5006325;28;20037;-82
2023/11/13 03:24:35;;;;;;;27.60;11.93;;;10.60;99.90;;;;;;5025205;28;20033;-84
2023/11/13 03:27:00;;;;;;;33.25;13.35;;;10.60;99.90;;;;;;5009159;28;20506;-86
2023/11/13 03:29:26;;;;;;;34.63;11.45;;;10.60;99.90;;;;;;5023765;28;20124;-85
2023/11/13 03:31:52;;;;;;;36.45;11.93;;;10.60;99.90;;;;;;5024673;28;20172;-85
2023/11/13 03:34:18;;;;;;;33.75;11.13;;;10.60;99.90;;;;;;5023338;28;20076;-86
2023/11/13 03:36:44;;;;;;;31.77;10.32;;;10.60;99.90;;;;;;5020313;28;20037;-85
2023/11/13 03:39:11;;;;;;;38.13;11.43;;;10.60;99.90;;;;;;5003016;28;20030;-86
2023/11/13 03:41:38;;;;;;;36.42;10.50;;;10.60;99.90;;;;;;5001606;28;20046;-85
2023/11/13 03:44:04;;;;;;;36.88;10.82;;;10.60;99.90;;;;;;5007418;28;20038;-87
2023/11/13 03:46:30;;;;;;;39.28;10.38;;;10.60;99.90;;;;;;5004290;28;20095;-86
2023/11/13 03:48:56;;;;;;;35.60;9.23;;;10.70;99.90;;;;;;5016525;28;20026;-84
2023/11/13 03:51:23;;;;;;;37.67;9.63;;;10.70;99.90;;;;;;5022839;28;20010;-86
2023/11/13 03:53:50;;;;;;;34.55;9.52;;;10.70;99.90;;;;;;5009826;28;20045;-89
2023/11/13 03:56:16;;;;;;;35.10;8.55;;;10.70;99.90;;;;;;5001759;28;20099;-86
2023/11/13 03:58:42;;;;;;;35.13;8.57;;;10.70;99.90;;;;;;5008667;28;20021;-88
2023/11/13 04:01:08;;;;;;;31.35;8.45;;;10.80;99.90;;;;;;5005169;28;20059;-87
2023/11/13 04:03:34;;;;;;;36.95;8.20;;;10.80;99.90;;;;;;4997971;28;20042;-83
2023/11/13 04:05:59;;;;;;;38.80;8.57;;;10.90;99.90;;;;;;5003433;28;20038;-88
2023/11/13 04:08:25;;;;;;;35.20;7.75;;;10.90;99.90;;;;;;5000433;28;20034;-86
2023/11/13 04:10:51;;;;;;;37.00;8.23;;;10.90;99.90;;;;;;4999678;28;20076;-87
2023/11/13 04:13:18;;;;;;;33.58;8.38;;;10.90;99.90;;;;;;5016411;28;20033;-89
2023/11/13 04:15:44;;;;;;;38.88;8.70;;;11.00;99.90;;;;;;5010787;28;20621;-89
2023/11/13 04:18:10;;;;;;;33.92;8.73;;;11.00;99.90;;;;;;5001254;28;20030;-89
2023/11/13 04:20:36;;;;;;;37.90;8.00;;;11.00;99.90;;;;;;5000026;28;20148;-86
2023/11/13 04:23:02;;;;;;;31.08;7.70;;;11.00;99.90;;;;;;5019556;28;20132;-87
2023/11/13 04:25:28;;;;;;;30.27;7.55;;;11.00;99.90;;;;;;5021048;28;20346;-86
2023/11/13 04:27:53;;;;;;;31.15;7.18;;;11.10;99.90;;;;;;5021572;28;20580;-85
2023/11/13 04:30:19;;;;;;;36.45;7.53;;;11.10;99.90;;;;;;5019016;28;20701;-87
2023/11/13 04:32:45;;;;;;;40.83;7.93;;;11.10;99.90;;;;;;5011233;28;20443;-84
2023/11/13 04:35:11;;;;;;;36.88;7.95;;;11.10;99.90;;;;;;4999076;28;20034;-85
2023/11/13 04:37:37;;;;;;;33.38;8.25;;;11.10;99.90;;;;;;5012174;28;21159;-89
2023/11/13 04:40:04;;;;;;;31.83;8.30;;;11.10;99.90;;;;;;5026791;28;20025;-87
2023/11/13 04:42:31;;;;;;;35.75;7.45;;;11.10;99.90;;;;;;5011917;28;20041;-90
2023/11/13 04:44:56;;;;;;;36.80;8.55;;;11.10;99.90;;;;;;5004949;28;20054;-87
2023/11/13 04:47:22;;;;;;;27.77;7.85;;;11.10;99.90;;;;;;5003460;28;20174;-85
2023/11/13 04:49:49;;;;;;;30.30;7.68;;;11.10;99.90;;;;;;5004403;28;20034;-85
2023/11/13 04:52:15;;;;;;;32.22;8.73;;;11.10;99.90;;;;;;5002584;28;20044;-90
2023/11/13 04:54:40;;;;;;;33.90;7.40;;;11.10;99.90;;;;;;4999870;28;20026;-89
2023/11/13 04:57:06;;;;;;;34.72;7.72;;;11.10;99.90;;;;;;5013872;28;20046;-88
2023/11/13 04:59:32;;;;;;;28.60;8.25;;;11.10;99.90;;;;;;5006433;28;20064;-83
2023/11/13 05:01:57;;;;;;;34.33;9.20;;;11.10;99.90;;;;;;5018704;28;20025;-88
2023/11/13 05:04:26;;;;;;;36.47;8.07;;;11.10;99.90;;;;;;5022455;28;20628;-84
2023/11/13 05:06:52;;;;;;;33.35;8.50;;;11.10;99.90;;;;;;5005482;28;20372;-84
2023/11/13 05:09:18;;;;;;;34.45;7.82;;;11.10;99.90;;;;;;5023215;28;20032;-88
2023/11/13 05:11:44;;;;;;;31.92;7.40;;;11.10;99.90;;;;;;5023559;28;20041;-88
2023/11/13 05:14:10;;;;;;;25.30;7.88;;;11.10;99.90;;;;;;5021035;28;20071;-83
2023/11/13 05:16:37;;;;;;;27.08;7.45;;;11.20;99.90;;;;;;5016406;28;20040;-88
2023/11/13 05:19:03;;;;;;;28.63;7.57;;;11.20;99.90;;;;;;5021201;28;20090;-88
2023/11/13 05:21:29;;;;;;;27.48;7.22;;;11.10;99.90;;;;;;5020902;28;20605;-85
2023/11/13 05:23:55;;;;;;;27.27;7.43;;;11.10;99.90;;;;;;5022171;28;20049;-90
2023/11/13 05:26:21;;;;;;;21.75;6.07;;;11.10;99.90;;;;;;5015817;28;20099;-87
2023/11/13 05:28:47;;;;;;;30.58;7.60;;;11.10;99.90;;;;;;5016744;28;20048;-86
2023/11/13 05:31:14;;;;;;;26.10;6.60;;;11.10;99.90;;;;;;5020083;28;20535;-86
2023/11/13 05:33:39;;;;;;;22.10;6.90;;;11.10;99.90;;;;;;5019261;28;20033;-85
2023/11/13 05:36:06;;;;;;;29.05;6.15;;;11.10;99.90;;;;;;5012847;28;20057;-88
2023/11/13 05:38:31;;;;;;;22.00;6.28;;;11.10;99.90;;;;;;5015318;28;20056;-89
2023/11/13 05:40:57;;;;;;;22.55;6.45;;;11.10;99.90;;;;;;5016151;28;20458;-89
2023/11/13 05:43:23;;;;;;;19.38;6.45;;;11.10;99.90;;;;;;5012170;28;20037;-91
2023/11/13 05:45:49;;;;;;;24.10;5.95;;;11.10;99.90;;;;;;5016165;28;20112;-87
2023/11/13 05:48:16;;;;;;;17.90;6.18;;;11.10;99.90;;;;;;5029148;28;20106;-84
2023/11/13 05:50:41;;;;;;;13.70;4.88;;;11.10;99.90;;;;;;5037945;28;20017;-84
2023/11/13 05:53:07;;;;;;;16.00;6.25;;;11.10;99.90;;;;;;5055941;28;20085;-85
2023/11/13 05:55:36;;;;;;;21.65;6.18;;;11.10;99.90;;;;;;5024309;28;20181;-89
2023/11/13 05:58:04;;;;;;;16.25;6.15;;;11.10;99.90;;;;;;5017649;28;20033;-88
2023/11/13 06:00:30;;;;;;;22.33;5.40;;;11.10;99.90;;;;;;5023723;28;21156;-85
2023/11/13 06:02:55;;;;;;;16.98;5.22;;;11.00;99.90;;;;;;5030589;28;20033;-89
2023/11/13 06:05:21;;;;;;;17.77;5.25;;;11.00;99.90;;;;;;5027896;28;20052;-88
2023/11/13 06:07:47;;;;;;;18.10;5.25;;;11.00;99.90;;;;;;5038534;28;20042;-90
2023/11/13 06:10:14;;;;;;;19.33;5.43;;;10.90;99.90;;;;;;5023270;28;20621;-88
2023/11/13 06:12:40;;;;;;;17.67;5.65;;;10.90;99.90;;;;;;5022239;28;20088;-86
2023/11/13 06:15:13;;;;;;;15.27;5.88;;;11.00;99.90;;;;;;5014578;28;20073;-87
2023/11/13 06:17:41;;;;;;;17.45;5.78;;;10.90;99.90;;;;;;5017565;28;20084;-91
2023/11/13 06:20:13;;;;;;;20.25;6.97;;;10.90;99.90;;;;;;5020381;28;20112;-86
2023/11/13 06:22:39;;;;;;;17.77;8.00;;;10.90;99.90;;;;;;5021918;28;20029;-85
2023/11/13 06:25:05;;;;;;;15.68;6.10;;;10.90;99.90;;;;;;5022689;28;20089;-86
2023/11/13 06:27:31;;;;;;;16.98;5.75;;;10.90;99.90;;;;;;5035810;28;20032;-85
2023/11/13 06:29:57;;;;;;;13.75;5.78;;;10.90;99.90;;;;;;5042019;28;20017;-84
2023/11/13 06:32:23;;;;;;;13.98;5.28;;;10.80;99.90;;;;;;5041032;28;20036;-83
2023/11/13 06:34:48;;;;;;;13.18;5.85;;;10.80;99.90;;;;;;5041147;28;20038;-87
2023/11/13 06:37:15;;;;;;;16.17;7.10;;;10.80;99.90;;;;;;5033063;28;20127;-84
2023/11/13 06:39:42;;;;;;;18.15;8.25;;;10.80;99.90;;;;;;5017962;28;20026;-91
2023/11/13 06:42:08;;;;;;;15.88;7.97;;;10.70;99.90;;;;;;5020677;28;20057;-87
2023/11/13 06:44:34;;;;;;;12.20;5.10;;;10.80;99.90;;;;;;5022653;28;20068;-90
2023/11/13 06:47:00;;;;;;;12.63;5.18;;;10.80;99.90;;;;;;5013798;28;20053;-89
2023/11/13 06:49:26;;;;;;;12.93;4.35;;;10.70;99.90;;;;;;5027621;28;20036;-87
2023/11/13 06:51:52;;;;;;;10.93;3.75;;;10.70;99.90;;;;;;5035728;28;20040;-84
2023/11/13 06:54:19;;;;;;;9.63;3.40;;;10.70;99.90;;;;;;5040442;28;20018;-83
2023/11/13 06:56:45;;;;;;;8.65;3.33;;;10.70;99.90;;;;;;5042441;28;20043;-84
2023/11/13 06:59:11;;;;;;;8.00;3.03;;;10.70;99.90;;;;;;5041054;28;20026;-87
2023/11/13 07:01:43;;;;;;;10.23;3.42;;;10.70;99.90;;;;;;5050047;28;20056;-83
2023/11/13 07:04:11;;;;;;;10.93;3.53;;;10.80;99.90;;;;;;5051125;28;20026;-85
2023/11/13 07:06:38;;;;;;;10.10;3.85;;;10.80;99.90;;;;;;5023449;28;20088;-75
2023/11/13 07:09:13;;;;;;;12.85;4.95;;;10.80;99.90;;;;;;5019714;28;20095;-76
2023/11/13 07:11:42;;;;;;;12.25;5.68;;;10.90;99.90;;;;;;5007430;28;20026;-77
2023/11/13 07:14:09;;;;;;;16.40;5.85;;;11.00;99.90;;;;;;5019709;28;20021;-76
2023/11/13 07:16:35;;;;;;;13.23;5.90;;;11.10;99.90;;;;;;5012739;28;20259;-76
2023/11/13 07:19:03;;;;;;;14.90;6.43;;;11.00;99.90;;;;;;5013064;28;20491;-77
2023/11/13 07:21:32;;;;;;;17.08;6.82;;;11.10;99.90;;;;;;5017739;28;20748;-76
2023/11/13 07:23:58;;;;;;;19.30;8.23;;;11.00;99.90;;;;;;5012797;28;20050;-76
2023/11/13 07:26:26;;;;;;;21.60;8.70;;;11.10;99.90;;;;;;5013853;28;20052;-76
2023/11/13 07:28:52;;;;;;;15.05;8.82;;;11.10;99.90;;;;;;5021042;28;20059;-77
2023/11/13 07:31:19;;;;;;;22.65;10.95;;;11.20;99.90;;;;;;5017262;28;20099;-76
2023/11/13 07:33:45;;;;;;;21.33;11.27;;;11.20;99.90;;;;;;5015036;28;20397;-77
2023/11/13 07:36:11;;;;;;;27.95;11.88;;;11.30;99.90;;;;;;5015415;28;20037;-76
2023/11/13 07:38:36;;;;;;;24.77;10.63;;;11.40;99.90;;;;;;5013382;28;20500;-77
2023/11/13 07:41:02;;;;;;;24.15;11.90;;;11.40;99.90;;;;;;5011941;28;20121;-78
2023/11/13 07:43:28;;;;;;;26.77;12.60;;;11.50;99.90;;;;;;5013555;28;20030;-76
2023/11/13 07:45:54;;;;;;;26.90;11.63;;;11.50;99.90;;;;;;5012533;28;20029;-76
2023/11/13 07:48:20;;;;;;;28.63;12.52;;;11.50;99.90;;;;;;5012694;28;20045;-77
2023/11/13 07:50:46;;;;;;;31.90;13.07;;;11.60;99.90;;;;;;5015240;28;20598;-77
2023/11/13 07:53:12;;;;;;;27.00;11.75;;;11.60;99.90;;;;;;5016906;28;20139;-76
2023/11/13 07:55:43;;;;;;;27.52;11.75;;;11.70;99.90;;;;;;5018111;28;20033;-78
2023/11/13 07:58:10;;;;;;;40.40;12.68;;;11.70;99.90;;;;;;5013609;28;20034;-77
2023/11/13 08:00:36;;;;;;;33.47;12.25;;;11.80;99.90;;;;;;5018037;28;20079;-77
2023/11/13 08:03:04;;;;;;;26.95;11.80;;;11.80;99.90;;;;;;5018232;28;20056;-77
2023/11/13 08:05:30;;;;;;;27.33;11.25;;;11.80;99.90;;;;;;5016079;28;20061;-76
2023/11/13 08:07:56;;;;;;;32.75;11.02;;;11.90;99.90;;;;;;5018549;28;20069;-76
2023/11/13 08:10:21;;;;;;;26.60;10.63;;;12.00;99.90;;;;;;5018054;28;20049;-77
2023/11/13 08:12:49;;;;;;;29.25;10.65;;;12.00;99.90;;;;;;5019103;28;20038;-78
2023/11/13 08:15:16;;;;;;;33.63;11.57;;;12.10;99.90;;;;;;5016707;28;20477;-77
2023/11/13 08:17:43;;;;;;;28.90;10.43;;;12.10;99.90;;;;;;5016564;28;20033;-77
2023/11/13 08:20:13;;;;;;;27.60;9.75;;;12.20;99.90;;;;;;5016979;28;20400;-76
2023/11/13 08:22:39;;;;;;;26.77;10.38;;;12.20;99.90;;;;;;5015307;28;20044;-77
2023/11/13 08:25:15;;;;;;;35.30;9.70;;;12.30;99.90;;;;;;5020301;28;20121;-77
2023/11/13 08:27:42;;;;;;;27.13;8.63;;;12.30;99.90;;;;;;5014971;28;20057;-77
2023/11/13 08:30:09;;;;;;;26.88;8.88;;;12.40;99.90;;;;;;5017462;28;20041;-76
2023/11/13 08:32:35;;;;;;;30.08;9.30;;;12.40;99.90;;;;;;5017789;28;20037;-77
2023/11/13 08:35:04;;;;;;;28.63;9.23;;;12.50;99.90;;;;;;5016443;28;20026;-77
2023/11/13 08:37:31;;;;;;;25.48;9.00;;;12.60;99.90;;;;;;5015541;28;20560;-75
2023/11/13 08:39:57;;;;;;;28.27;9.43;;;12.60;99.90;;;;;;5019632;28;20102;-74
2023/11/13 08:42:22;;;;;;;31.27;8.95;;;12.70;99.90;;;;;;5017962;28;20501;-76
2023/11/13 08:44:48;;;;;;;27.13;10.55;;;12.70;99.90;;;;;;5016683;28;20982;-78
2023/11/13 08:47:15;;;;;;;32.40;9.63;;;12.70;99.90;;;;;;5016812;28;20042;-79
2023/11/13 08:49:42;;;;;;;31.17;10.00;;;12.80;99.90;;;;;;5017833;28;20463;-78
2023/11/13 08:52:11;;;;;;;19.00;7.00;;;12.80;99.90;;;;;;5012523;28;20385;-79
2023/11/13 08:54:36;;;;;;;27.98;8.52;;;12.90;99.90;;;;;;5017035;28;20029;-79
2023/11/13 08:57:11;;;;;;;26.05;7.22;;;13.00;99.90;;;;;;5017984;28;20045;-76
2023/11/13 08:59:38;;;;;;;24.50;7.40;;;13.00;99.90;;;;;;5018353;28;20014;-78
2023/11/13 09:02:07;;;;;;;20.85;7.85;;;13.00;99.90;;;;;;5013927;28;20045;-79
2023/11/13 09:04:36;;;;;;;27.58;8.63;;;13.10;99.90;;;;;;5018579;28;20060;-78
2023/11/13 09:07:07;;;;;;;25.00;7.75;;;13.10;99.90;;;;;;5018385;28;20125;-77
2023/11/13 09:09:34;;;;;;;30.50;7.95;;;13.10;99.90;;;;;;5019788;28;20112;-77
2023/11/13 09:12:04;;;;;;;22.92;8.27;;;13.20;99.90;;;;;;5019219;28;20040;-76
2023/11/13 09:14:34;;;;;;;22.48;7.35;;;13.30;99.90;;;;;;5015234;28;20017;-80
2023/11/13 09:17:11;;;;;;;27.70;8.23;;;13.40;99.90;;;;;;5015315;28;20651;-76
2023/11/13 09:19:43;;;;;;;28.98;7.72;;;13.40;99.90;;;;;;5020518;28;20061;-78
2023/11/13 09:22:10;;;;;;;26.20;7.55;;;13.50;99.90;;;;;;5015462;28;20117;-76
2023/11/13 09:24:39;;;;;;;22.52;8.23;;;13.60;99.90;;;;;;5019688;28;20025;-77
2023/11/13 09:27:09;;;;;;;22.23;7.57;;;13.60;99.90;;;;;;5011326;28;20050;-76
2023/11/13 09:29:43;;;;;;;20.80;7.38;;;13.60;99.90;;;;;;5016794;28;20061;-76
2023/11/13 09:32:11;;;;;;;26.70;7.40;;;13.60;99.90;;;;;;5013894;28;20402;-77
2023/11/13 09:34:37;;;;;;;21.42;6.68;;;13.70;99.80;;;;;;5014540;28;20101;-76
2023/11/13 09:37:08;;;;;;;22.15;7.13;;;13.70;99.80;;;;;;5013837;28;20116;-78
2023/11/13 09:39:42;;;;;;;23.73;6.45;;;13.90;99.70;;;;;;5010959;28;20068;-78
2023/11/13 09:42:16;;;;;;;23.95;8.30;;;13.90;99.60;;;;;;5013940;28;20068;-78
2023/11/13 09:44:43;;;;;;;27.50;7.63;;;13.90;99.50;;;;;;5018816;28;20157;-76
2023/11/13 09:47:13;;;;;;;18.00;6.85;;;13.90;99.40;;;;;;5019050;28;20049;-76
2023/11/13 09:49:55;;;;;;;21.65;7.53;;;13.90;99.30;;;;;;5018206;28;20071;-75
2023/11/13 09:52:23;;;;;;;22.55;7.03;;;14.00;99.20;;;;;;5016538;28;20033;-76
2023/11/13 09:54:50;;;;;;;19.98;6.43;;;14.00;99.10;;;;;;5017067;28;20038;-75
2023/11/13 09:57:16;;;;;;;22.13;6.38;;;14.00;99.20;;;;;;5015026;28;20041;-77
2023/11/13 09:59:46;;;;;;;24.80;8.07;;;14.00;99.10;;;;;;5015418;28;20045;-75
2023/11/13 10:02:14;;;;;;;27.02;7.25;;;14.10;99.30;;;;;;5014437;28;20037;-75
2023/11/13 10:04:40;;;;;;;29.30;7.15;;;14.10;99.30;;;;;;5016429;28;20026;-76
2023/11/13 10:07:09;;;;;;;21.38;6.80;;;14.10;99.40;;;;;;5014111;28;20556;-75
2023/11/13 10:09:35;;;;;;;21.75;6.70;;;14.10;99.50;;;;;;5017405;28;20064;-76
2023/11/13 10:12:02;;;;;;;23.40;6.95;;;14.10;99.50;;;;;;5009711;28;20060;-75
2023/11/13 10:14:29;;;;;;;22.63;7.03;;;14.20;99.50;;;;;;5014431;28;20059;-76
2023/11/13 10:16:56;;;;;;;26.27;7.25;;;14.10;99.50;;;;;;5011649;28;20099;-77
2023/11/13 10:19:23;;;;;;;20.20;6.78;;;14.20;99.50;;;;;;5013138;28;20030;-77
2023/11/13 10:21:57;;;;;;;22.63;7.20;;;14.10;99.60;;;;;;5003122;28;20498;-76
2023/11/13 10:24:25;;;;;;;25.08;7.65;;;14.10;99.70;;;;;;5015872;28;20032;-79
2023/11/13 10:26:57;;;;;;;17.60;6.82;;;14.20;99.80;;;;;;4998118;28;20128;-77
2023/11/13 10:29:29;;;;;;;19.45;7.00;;;14.20;99.90;;;;;;5027004;28;20057;-78
2023/11/13 10:31:58;;;;;;;18.33;6.25;;;14.30;99.90;;;;;;4994800;28;20045;-78
2023/11/13 10:34:41;;;;;;;17.83;6.47;;;14.30;99.90;;;;;;5007066;28;20048;-78
2023/11/13 10:37:11;;;;;;;20.92;6.03;;;14.30;99.90;;;;;;5004425;28;20061;-78
2023/11/13 10:39:48;;;;;;;21.00;6.90;;;14.30;99.90;;;;;;5001478;28;20030;-81
2023/11/13 10:42:22;;;;;;;24.10;7.32;;;14.40;99.90;;;;;;4998293;28;20030;-79
2023/11/13 10:44:58;;;;;;;19.48;6.10;;;14.30;99.90;;;;;;5001549;28;20060;-75
2023/11/13 10:47:32;;;;;;;21.25;6.53;;;14.40;99.90;;;;;;4995856;28;20090;-78
2023/11/13 10:49:59;;;;;;;17.47;6.10;;;14.40;99.90;;;;;;4998877;28;20476;-77
2023/11/13 10:52:29;;;;;;;18.55;5.90;;;14.40;99.90;;;;;;5007944;28;20033;-78
2023/11/13 10:54:59;;;;;;;20.73;6.32;;;14.40;99.90;;;;;;5018821;28;20038;-78
2023/11/13 10:57:26;;;;;;;17.13;6.20;;;14.50;99.90;;;;;;4997955;28;20080;-78
2023/11/13 10:59:55;;;;;;;14.88;6.07;;;14.50;99.90;;;;;;5001672;28;20037;-79
2023/11/13 11:02:32;;;;;;;15.65;5.28;;;14.60;99.90;;;;;;5007897;28;20026;-78
2023/11/13 11:05:09;;;;;;;16.83;5.85;;;14.60;99.90;;;;;;5014537;28;20079;-79
2023/11/13 11:07:36;;;;;;;17.77;5.43;;;14.60;99.90;;;;;;5009793;28;20053;-77
2023/11/13 11:10:05;;;;;;;15.88;5.38;;;14.70;99.90;;;;;;5014391;28;20474;-78
2023/11/13 11:12:51;;;;;;;11.20;4.30;;;14.70;99.90;;;;;;5018408;28;20030;-79
2023/11/13 11:15:24;;;;;;;12.88;4.70;;;14.70;99.90;;;;;;5021127;28;20758;-79
2023/11/13 11:18:05;;;;;;;13.45;4.63;;;14.80;99.90;;;;;;4999945;28;20391;-79
2023/11/13 11:20:43;;;;;;;12.10;4.97;;;14.80;99.90;;;;;;5002370;28;20037;-79
2023/11/13 11:23:11;;;;;;;13.23;5.13;;;14.90;99.90;;;;;;5018088;28;20569;-78
2023/11/13 11:25:47;;;;;;;11.15;4.97;;;15.00;99.90;;;;;;5014206;28;20511;-78
2023/11/13 11:28:43;;;;;;;12.52;4.47;;;15.00;99.90;;;;;;5012271;28;20529;-78
2023/11/13 11:31:30;;;;;;;11.35;4.75;;;15.00;99.90;;;;;;5018908;28;20038;-78
2023/11/13 11:33:57;;;;;;;10.23;4.68;;;15.00;99.90;;;;;;5015531;28;20037;-77
2023/11/13 11:36:30;;;;;;;12.35;5.32;;;15.00;99.90;;;;;;5010198;28;20060;-76
2023/11/13 11:39:21;;;;;;;11.82;4.80;;;15.10;99.90;;;;;;4997308;28;20601;-77
2023/11/13 11:41:57;;;;;;;13.02;4.20;;;15.10;99.90;;;;;;4997802;28;20062;-78
2023/11/13 11:44:28;;;;;;;11.48;4.93;;;15.10;99.90;;;;;;5003172;28;20025;-78
2023/11/13 11:46:55;;;;;;;10.63;4.18;;;15.10;99.80;;;;;;5007633;28;20524;-79
2023/11/13 11:49:28;;;;;;;9.90;4.10;;;15.10;99.90;;;;;;5022482;28;20501;-79
2023/11/13 11:52:05;;;;;;;10.25;4.50;;;15.10;99.80;;;;;;5027070;28;20026;-79
2023/11/13 11:54:34;;;;;;;12.82;4.30;;;15.20;99.90;;;;;;5046040;28;20018;-79
2023/11/13 11:57:07;;;;;;;9.18;4.07;;;15.20;99.90;;;;;;5024773;28;20034;-78
2023/11/13 11:59:34;;;;;;;9.07;4.18;;;15.10;99.90;;;;;;5003923;28;20509;-79
2023/11/13 12:02:03;;;;;;;10.25;4.35;;;15.20;99.90;;;;;;4995987;28;20041;-78
2023/11/13 12:04:32;;;;;;;10.02;3.83;;;15.30;99.90;;;;;;4997308;28;20641;-76
2023/11/13 12:07:08;;;;;;;9.38;3.70;;;15.30;99.90;;;;;;4995574;28;20699;-78
2023/11/13 12:09:36;;;;;;;9.80;3.72;;;15.30;99.90;;;;;;5002799;28;20184;-76
2023/11/13 12:12:02;;;;;;;8.40;3.33;;;15.40;99.80;;;;;;5004526;28;20032;-77
2023/11/13 12:14:28;;;;;;;10.20;3.45;;;15.50;99.80;;;;;;5025469;28;20033;-77
2023/11/13 12:16:54;;;;;;;8.77;3.85;;;15.50;99.70;;;;;;5003888;28;20050;-77
2023/11/13 12:19:21;;;;;;;7.60;4.15;;;15.60;99.60;;;;;;5003961;28;20124;-77
2023/11/13 12:21:49;;;;;;;9.20;3.22;;;15.60;99.30;;;;;;5002591;28;20088;-77
2023/11/13 12:24:18;;;;;;;8.75;3.28;;;15.60;99.20;;;;;;4999712;28;20436;-77
2023/11/13 12:26:45;;;;;;;7.47;2.83;;;15.60;99.00;;;;;;5002173;28;20797;-79
2023/11/13 12:29:18;;;;;;;9.27;2.92;;;15.50;99.00;;;;;;5006979;28;20463;-77
2023/11/13 12:31:46;;;;;;;6.78;2.75;;;15.50;98.90;;;;;;4997896;28;20045;-77
2023/11/13 12:34:15;;;;;;;7.30;2.95;;;15.50;98.80;;;;;;5000806;28;20022;-77
2023/11/13 12:36:48;;;;;;;6.65;2.80;;;15.50;98.70;;;;;;5010996;28;21198;-78
2023/11/13 12:39:22;;;;;;;7.75;2.95;;;15.50;98.60;;;;;;5004325;28;20045;-79